sensor_id;sensor_type;location;lat;lon;timestamp;pressure;altitude;pressure_sealevel;temperature;humidity
69879;BME280;57161;43.136;24.706;2023-01-04T00:01:16;100219.19;;;7.09;78.99
69879;BME280;57161;43.136;24.706;2023-01-04T00:03:42;100205.97;;;6.99;78.85
69879;BME280;57161;43.136;24.706;2023-01-04T00:06:10;100223.69;;;7.01;78.67
69879;BME280;57161;43.136;24.706;2023-01-04T00:08:37;100203.84;;;6.82;78.63
69879;BME280;57161;43.136;24.706;2023-01-04T00:11:05;100235.25;;;6.94;78.41
69879;BME280;57161;43.136;24.706;2023-01-04T00:13:31;100232.16;;;6.86;79.21
69879;BME280;57161;43.136;24.706;2023-01-04T00:15:58;100213.66;;;6.78;79.68
69879;BME280;57161;43.136;24.706;2023-01-04T00:18:29;100225.09;;;6.85;79.81
69879;BME280;57161;43.136;24.706;2023-01-04T00:20:54;100228.97;;;6.99;80.08
69879;BME280;57161;43.136;24.706;2023-01-04T00:23:20;100213.00;;;6.88;79.58
69879;BME280;57161;43.136;24.706;2023-01-04T00:25:45;100236.09;;;7.06;78.93
69879;BME280;57161;43.136;24.706;2023-01-04T00:28:11;100239.94;;;7.14;78.94
69879;BME280;57161;43.136;24.706;2023-01-04T00:30:36;100242.91;;;7.05;79.47
69879;BME280;57161;43.136;24.706;2023-01-04T00:33:02;100234.81;;;7.01;79.27
69879;BME280;57161;43.136;24.706;2023-01-04T00:35:27;100241.06;;;6.96;79.21
69879;BME280;57161;43.136;24.706;2023-01-04T00:37:52;100243.41;;;7.03;78.97
69879;BME280;57161;43.136;24.706;2023-01-04T00:40:18;100257.59;;;7.11;79.42
69879;BME280;57161;43.136;24.706;2023-01-04T00:42:43;100240.66;;;7.09;79.43
69879;BME280;57161;43.136;24.706;2023-01-04T00:45:09;100240.56;;;6.98;79.17
69879;BME280;57161;43.136;24.706;2023-01-04T00:47:34;100259.13;;;7.12;78.55
69879;BME280;57161;43.136;24.706;2023-01-04T00:50:00;100241.81;;;6.97;78.52
69879;BME280;57161;43.136;24.706;2023-01-04T00:52:25;100239.19;;;6.82;78.09
69879;BME280;57161;43.136;24.706;2023-01-04T00:54:51;100250.75;;;6.75;78.29
69879;BME280;57161;43.136;24.706;2023-01-04T00:57:16;100248.38;;;6.62;78.47
69879;BME280;57161;43.136;24.706;2023-01-04T00:59:42;100257.47;;;6.62;79.14
69879;BME280;57161;43.136;24.706;2023-01-04T01:02:07;100253.91;;;6.62;79.56
69879;BME280;57161;43.136;24.706;2023-01-04T01:04:33;100262.78;;;6.66;79.53
69879;BME280;57161;43.136;24.706;2023-01-04T01:06:58;100252.94;;;6.65;79.28
69879;BME280;57161;43.136;24.706;2023-01-04T01:09:24;100276.22;;;6.68;79.30
69879;BME280;57161;43.136;24.706;2023-01-04T01:11:51;100255.34;;;6.52;79.58
69879;BME280;57161;43.136;24.706;2023-01-04T01:14:22;100267.75;;;6.56;79.97
69879;BME280;57161;43.136;24.706;2023-01-04T01:16:48;100274.56;;;6.55;80.43
69879;BME280;57161;43.136;24.706;2023-01-04T01:19:14;100259.66;;;6.53;80.34
69879;BME280;57161;43.136;24.706;2023-01-04T01:21:40;100249.69;;;6.41;79.88
69879;BME280;57161;43.136;24.706;2023-01-04T01:24:07;100269.50;;;6.54;79.79
69879;BME280;57161;43.136;24.706;2023-01-04T01:26:34;100277.84;;;6.54;79.61
69879;BME280;57161;43.136;24.706;2023-01-04T01:28:59;100268.47;;;6.51;80.02
69879;BME280;57161;43.136;24.706;2023-01-04T01:31:27;100274.78;;;6.52;80.04
69879;BME280;57161;43.136;24.706;2023-01-04T01:33:54;100277.06;;;6.53;79.83
69879;BME280;57161;43.136;24.706;2023-01-04T01:36:22;100262.59;;;6.44;79.80
69879;BME280;57161;43.136;24.706;2023-01-04T01:38:48;100248.97;;;6.46;80.02
69879;BME280;57161;43.136;24.706;2023-01-04T01:41:18;100270.97;;;6.49;79.99
69879;BME280;57161;43.136;24.706;2023-01-04T01:46:49;100272.06;;;6.57;79.65
69879;BME280;57161;43.136;24.706;2023-01-04T01:51:52;100258.44;;;6.33;80.30
69879;BME280;57161;43.136;24.706;2023-01-04T01:54:24;100263.19;;;6.27;80.04
69879;BME280;57161;43.136;24.706;2023-01-04T01:56:51;100266.50;;;6.31;79.51
69879;BME280;57161;43.136;24.706;2023-01-04T01:59:18;100249.38;;;6.13;79.75
69879;BME280;57161;43.136;24.706;2023-01-04T02:01:44;100256.47;;;6.14;79.85
69879;BME280;57161;43.136;24.706;2023-01-04T02:04:10;100259.31;;;6.19;79.86
69879;BME280;57161;43.136;24.706;2023-01-04T02:06:42;100258.56;;;6.19;79.85
69879;BME280;57161;43.136;24.706;2023-01-04T02:09:10;100266.88;;;6.19;79.62
69879;BME280;57161;43.136;24.706;2023-01-04T02:11:36;100256.34;;;6.03;79.95
69879;BME280;57161;43.136;24.706;2023-01-04T02:14:02;100253.59;;;6.03;80.30
69879;BME280;57161;43.136;24.706;2023-01-04T02:19:41;100255.72;;;5.93;80.66
69879;BME280;57161;43.136;24.706;2023-01-04T02:22:50;100263.78;;;5.91;80.70
69879;BME280;57161;43.136;24.706;2023-01-04T02:34:42;100251.69;;;5.73;80.91
69879;BME280;57161;43.136;24.706;2023-01-04T02:37:34;100242.59;;;5.73;80.90
69879;BME280;57161;43.136;24.706;2023-01-04T02:40:40;100233.16;;;5.65;81.48
69879;BME280;57161;43.136;24.706;2023-01-04T02:46:10;100236.97;;;5.67;82.42
69879;BME280;57161;43.136;24.706;2023-01-04T02:48:39;100215.66;;;5.53;82.82
69879;BME280;57161;43.136;24.706;2023-01-04T02:51:34;100237.19;;;5.64;82.67
69879;BME280;57161;43.136;24.706;2023-01-04T02:54:22;100225.81;;;5.62;82.00
69879;BME280;57161;43.136;24.706;2023-01-04T02:57:37;100234.41;;;5.64;82.02
69879;BME280;57161;43.136;24.706;2023-01-04T03:08:29;100238.16;;;5.61;83.18
69879;BME280;57161;43.136;24.706;2023-01-04T03:11:05;100230.19;;;5.68;83.55
69879;BME280;57161;43.136;24.706;2023-01-04T03:13:49;100236.69;;;5.65;82.42
69879;BME280;57161;43.136;24.706;2023-01-04T03:16:20;100228.81;;;5.58;82.01
69879;BME280;57161;43.136;24.706;2023-01-04T03:18:50;100231.50;;;5.53;81.78
69879;BME280;57161;43.136;24.706;2023-01-04T03:21:19;100215.34;;;5.51;81.71
69879;BME280;57161;43.136;24.706;2023-01-04T03:23:48;100214.53;;;5.45;82.35
69879;BME280;57161;43.136;24.706;2023-01-04T03:26:43;100217.78;;;5.43;82.72
69879;BME280;57161;43.136;24.706;2023-01-04T03:32:24;100205.78;;;5.32;82.53
69879;BME280;57161;43.136;24.706;2023-01-04T03:35:10;100210.56;;;5.31;82.26
69879;BME280;57161;43.136;24.706;2023-01-04T03:38:16;100211.03;;;5.30;82.04
69879;BME280;57161;43.136;24.706;2023-01-04T03:41:11;100233.75;;;5.34;81.57
69879;BME280;57161;43.136;24.706;2023-01-04T03:46:56;100248.25;;;5.23;81.12
69879;BME280;57161;43.136;24.706;2023-01-04T03:49:48;100244.25;;;5.09;82.08
69879;BME280;57161;43.136;24.706;2023-01-04T03:52:23;100242.25;;;5.10;82.85
69879;BME280;57161;43.136;24.706;2023-01-04T03:54:51;100235.28;;;5.00;83.34
69879;BME280;57161;43.136;24.706;2023-01-04T03:57:18;100210.22;;;4.89;83.65
69879;BME280;57161;43.136;24.706;2023-01-04T03:59:49;100240.88;;;5.20;82.71
69879;BME280;57161;43.136;24.706;2023-01-04T04:02:22;100193.09;;;4.90;82.55
69879;BME280;57161;43.136;24.706;2023-01-04T04:04:48;100236.97;;;5.12;82.43
69879;BME280;57161;43.136;24.706;2023-01-04T04:07:33;100230.31;;;5.04;82.22
69879;BME280;57161;43.136;24.706;2023-01-04T04:10:16;100241.97;;;5.08;81.80
69879;BME280;57161;43.136;24.706;2023-01-04T04:12:42;100252.56;;;5.09;81.98
69879;BME280;57161;43.136;24.706;2023-01-04T04:15:08;100247.38;;;5.17;81.98
69879;BME280;57161;43.136;24.706;2023-01-04T04:17:34;100230.47;;;5.15;82.79
69879;BME280;57161;43.136;24.706;2023-01-04T04:19:59;100241.53;;;5.30;83.15
69879;BME280;57161;43.136;24.706;2023-01-04T04:22:24;100229.50;;;5.18;82.78
69879;BME280;57161;43.136;24.706;2023-01-04T04:24:50;100239.81;;;5.18;83.07
69879;BME280;57161;43.136;24.706;2023-01-04T04:27:15;100230.47;;;5.15;83.51
69879;BME280;57161;43.136;24.706;2023-01-04T04:29:41;100240.59;;;5.18;83.62
69879;BME280;57161;43.136;24.706;2023-01-04T04:32:06;100247.53;;;5.28;83.18
69879;BME280;57161;43.136;24.706;2023-01-04T04:34:32;100237.06;;;5.18;82.86
69879;BME280;57161;43.136;24.706;2023-01-04T04:36:57;100244.88;;;5.19;82.50
69879;BME280;57161;43.136;24.706;2023-01-04T04:39:23;100254.34;;;5.27;82.01
69879;BME280;57161;43.136;24.706;2023-01-04T04:41:48;100236.63;;;5.04;81.59
69879;BME280;57161;43.136;24.706;2023-01-04T04:44:16;100260.66;;;5.13;81.97
69879;BME280;57161;43.136;24.706;2023-01-04T04:46:42;100245.03;;;4.95;82.30
69879;BME280;57161;43.136;24.706;2023-01-04T04:49:08;100260.91;;;4.95;82.69
69879;BME280;57161;43.136;24.706;2023-01-04T04:51:35;100268.06;;;4.87;82.82
69879;BME280;57161;43.136;24.706;2023-01-04T04:54:01;100266.81;;;4.88;82.77
69879;BME280;57161;43.136;24.706;2023-01-04T04:56:27;100240.84;;;4.70;82.83
69879;BME280;57161;43.136;24.706;2023-01-04T04:58:52;100261.94;;;4.82;82.25
69879;BME280;57161;43.136;24.706;2023-01-04T05:01:18;100272.66;;;4.90;82.27
69879;BME280;57161;43.136;24.706;2023-01-04T05:03:44;100272.94;;;4.92;82.49
69879;BME280;57161;43.136;24.706;2023-01-04T05:06:09;100279.81;;;4.96;82.44
69879;BME280;57161;43.136;24.706;2023-01-04T05:08:35;100274.66;;;4.89;82.25
69879;BME280;57161;43.136;24.706;2023-01-04T05:11:04;100282.09;;;4.98;82.28
69879;BME280;57161;43.136;24.706;2023-01-04T05:13:30;100275.44;;;4.90;82.08
69879;BME280;57161;43.136;24.706;2023-01-04T05:15:56;100274.94;;;4.91;81.95
69879;BME280;57161;43.136;24.706;2023-01-04T05:18:22;100297.19;;;4.97;81.79
69879;BME280;57161;43.136;24.706;2023-01-04T05:20:47;100305.56;;;5.02;81.52
69879;BME280;57161;43.136;24.706;2023-01-04T05:23:15;100290.13;;;4.96;81.46
69879;BME280;57161;43.136;24.706;2023-01-04T05:25:40;100296.50;;;4.87;81.73
69879;BME280;57161;43.136;24.706;2023-01-04T05:28:07;100308.94;;;4.92;82.44
69879;BME280;57161;43.136;24.706;2023-01-04T05:30:32;100276.28;;;4.81;82.49
69879;BME280;57161;43.136;24.706;2023-01-04T05:35:44;100301.94;;;5.11;83.62
69879;BME280;57161;43.136;24.706;2023-01-04T05:38:09;100282.47;;;5.05;83.58
69879;BME280;57161;43.136;24.706;2023-01-04T05:40:35;100277.00;;;5.11;82.94
69879;BME280;57161;43.136;24.706;2023-01-04T05:43:00;100296.19;;;5.15;83.07
69879;BME280;57161;43.136;24.706;2023-01-04T05:45:26;100296.69;;;5.13;82.87
69879;BME280;57161;43.136;24.706;2023-01-04T05:47:52;100302.31;;;5.19;82.42
69879;BME280;57161;43.136;24.706;2023-01-04T05:50:19;100301.75;;;5.15;81.40
69879;BME280;57161;43.136;24.706;2023-01-04T05:52:45;100313.50;;;5.09;80.87
69879;BME280;57161;43.136;24.706;2023-01-04T05:55:12;100307.59;;;4.87;81.15
69879;BME280;57161;43.136;24.706;2023-01-04T05:57:38;100300.72;;;4.82;80.92
69879;BME280;57161;43.136;24.706;2023-01-04T06:00:06;100311.91;;;4.88;80.81
69879;BME280;57161;43.136;24.706;2023-01-04T06:02:32;100309.13;;;4.73;81.05
69879;BME280;57161;43.136;24.706;2023-01-04T06:04:58;100309.13;;;4.88;81.12
69879;BME280;57161;43.136;24.706;2023-01-04T06:07:25;100299.59;;;4.89;80.88
69879;BME280;57161;43.136;24.706;2023-01-04T06:09:51;100330.41;;;5.11;80.76
69879;BME280;57161;43.136;24.706;2023-01-04T06:12:16;100307.50;;;5.11;80.75
69879;BME280;57161;43.136;24.706;2023-01-04T06:14:42;100294.75;;;5.19;81.29
69879;BME280;57161;43.136;24.706;2023-01-04T06:17:07;100293.91;;;5.28;81.11
69879;BME280;57161;43.136;24.706;2023-01-04T06:19:33;100304.19;;;5.42;80.84
69879;BME280;57161;43.136;24.706;2023-01-04T06:21:59;100309.31;;;5.49;80.84
69879;BME280;57161;43.136;24.706;2023-01-04T06:24:24;100290.53;;;5.38;80.70
69879;BME280;57161;43.136;24.706;2023-01-04T06:26:50;100324.09;;;5.61;80.55
69879;BME280;57161;43.136;24.706;2023-01-04T06:29:16;100327.56;;;5.56;80.34
69879;BME280;57161;43.136;24.706;2023-01-04T06:31:41;100330.50;;;5.67;79.50
69879;BME280;57161;43.136;24.706;2023-01-04T06:34:10;100332.63;;;5.57;79.62
69879;BME280;57161;43.136;24.706;2023-01-04T06:36:36;100333.13;;;5.56;79.57
69879;BME280;57161;43.136;24.706;2023-01-04T06:39:01;100315.63;;;5.50;79.68
69879;BME280;57161;43.136;24.706;2023-01-04T06:41:26;100333.25;;;5.67;79.29
69879;BME280;57161;43.136;24.706;2023-01-04T06:43:52;100328.41;;;5.62;79.62
69879;BME280;57161;43.136;24.706;2023-01-04T06:46:18;100344.03;;;5.80;79.52
69879;BME280;57161;43.136;24.706;2023-01-04T06:48:43;100343.81;;;5.83;79.55
69879;BME280;57161;43.136;24.706;2023-01-04T06:51:09;100352.50;;;6.06;79.47
69879;BME280;57161;43.136;24.706;2023-01-04T06:53:34;100361.69;;;6.17;79.63
69879;BME280;57161;43.136;24.706;2023-01-04T06:56:00;100346.50;;;6.33;80.41
69879;BME280;57161;43.136;24.706;2023-01-04T06:58:25;100350.75;;;6.28;81.14
69879;BME280;57161;43.136;24.706;2023-01-04T07:00:51;100334.13;;;6.34;80.92
69879;BME280;57161;43.136;24.706;2023-01-04T07:03:17;100351.34;;;6.58;80.76
69879;BME280;57161;43.136;24.706;2023-01-04T07:05:43;100360.81;;;6.72;79.80
69879;BME280;57161;43.136;24.706;2023-01-04T07:08:09;100338.25;;;6.65;79.88
69879;BME280;57161;43.136;24.706;2023-01-04T07:10:35;100367.09;;;6.93;79.67
69879;BME280;57161;43.136;24.706;2023-01-04T07:13:00;100350.69;;;6.95;81.77
69879;BME280;57161;43.136;24.706;2023-01-04T07:15:26;100354.09;;;7.10;82.10
69879;BME280;57161;43.136;24.706;2023-01-04T07:17:51;100366.22;;;7.39;83.71
69879;BME280;57161;43.136;24.706;2023-01-04T07:20:17;100368.16;;;7.64;84.16
69879;BME280;57161;43.136;24.706;2023-01-04T07:22:42;100373.41;;;7.94;83.26
69879;BME280;57161;43.136;24.706;2023-01-04T07:25:08;100360.84;;;8.09;82.39
69879;BME280;57161;43.136;24.706;2023-01-04T07:27:34;100378.97;;;8.36;81.53
69879;BME280;57161;43.136;24.706;2023-01-04T07:29:59;100373.19;;;8.51;80.69
69879;BME280;57161;43.136;24.706;2023-01-04T07:32:25;100358.28;;;8.54;80.27
69879;BME280;57161;43.136;24.706;2023-01-04T07:34:50;100363.38;;;8.67;80.09
69879;BME280;57161;43.136;24.706;2023-01-04T07:37:16;100373.00;;;8.77;79.50
69879;BME280;57161;43.136;24.706;2023-01-04T07:39:42;100380.38;;;8.86;78.72
69879;BME280;57161;43.136;24.706;2023-01-04T07:42:11;100376.84;;;8.91;78.72
69879;BME280;57161;43.136;24.706;2023-01-04T07:44:37;100380.66;;;8.99;78.28
69879;BME280;57161;43.136;24.706;2023-01-04T07:47:03;100371.28;;;9.02;78.06
69879;BME280;57161;43.136;24.706;2023-01-04T07:49:28;100374.31;;;9.10;77.88
69879;BME280;57161;43.136;24.706;2023-01-04T07:51:54;100364.69;;;9.05;77.74
69879;BME280;57161;43.136;24.706;2023-01-04T07:54:20;100390.81;;;9.19;77.57
69879;BME280;57161;43.136;24.706;2023-01-04T07:56:48;100381.69;;;9.13;77.63
69879;BME280;57161;43.136;24.706;2023-01-04T07:59:14;100393.84;;;9.26;77.42
69879;BME280;57161;43.136;24.706;2023-01-04T08:01:40;100365.19;;;9.09;76.56
69879;BME280;57161;43.136;24.706;2023-01-04T08:04:08;100402.00;;;9.30;76.76
69879;BME280;57161;43.136;24.706;2023-01-04T08:06:35;100407.56;;;9.30;76.43
69879;BME280;57161;43.136;24.706;2023-01-04T08:09:01;100396.16;;;9.17;76.60
69879;BME280;57161;43.136;24.706;2023-01-04T08:11:27;100410.63;;;9.32;76.67
69879;BME280;57161;43.136;24.706;2023-01-04T08:13:52;100400.47;;;9.29;76.36
69879;BME280;57161;43.136;24.706;2023-01-04T08:16:29;100414.16;;;9.32;76.60
69879;BME280;57161;43.136;24.706;2023-01-04T08:19:03;100408.34;;;9.30;76.77
69879;BME280;57161;43.136;24.706;2023-01-04T08:21:29;100412.13;;;9.39;76.36
69879;BME280;57161;43.136;24.706;2023-01-04T08:23:55;100398.44;;;9.29;76.33
69879;BME280;57161;43.136;24.706;2023-01-04T08:26:21;100417.19;;;9.40;76.42
69879;BME280;57161;43.136;24.706;2023-01-04T08:28:48;100416.97;;;9.44;76.23
69879;BME280;57161;43.136;24.706;2023-01-04T08:31:16;100420.75;;;9.41;76.29
69879;BME280;57161;43.136;24.706;2023-01-04T08:33:42;100396.41;;;9.36;76.06
69879;BME280;57161;43.136;24.706;2023-01-04T08:36:19;100417.72;;;9.50;75.93
69879;BME280;57161;43.136;24.706;2023-01-04T08:38:50;100414.44;;;9.46;76.05
69879;BME280;57161;43.136;24.706;2023-01-04T08:41:16;100418.22;;;9.43;75.92
69879;BME280;57161;43.136;24.706;2023-01-04T08:43:42;100416.22;;;9.60;75.53
69879;BME280;57161;43.136;24.706;2023-01-04T08:46:09;100421.78;;;9.54;75.35
69879;BME280;57161;43.136;24.706;2023-01-04T08:48:35;100422.28;;;9.47;75.50
69879;BME280;57161;43.136;24.706;2023-01-04T08:51:05;100427.34;;;9.54;75.15
69879;BME280;57161;43.136;24.706;2023-01-04T08:53:31;100429.66;;;9.61;75.13
69879;BME280;57161;43.136;24.706;2023-01-04T08:55:57;100429.13;;;9.69;74.94
69879;BME280;57161;43.136;24.706;2023-01-04T08:58:27;100415.94;;;9.63;74.83
69879;BME280;57161;43.136;24.706;2023-01-04T09:00:59;100423.78;;;9.71;74.93
69879;BME280;57161;43.136;24.706;2023-01-04T09:03:25;100429.63;;;9.67;74.89
69879;BME280;57161;43.136;24.706;2023-01-04T09:05:50;100414.16;;;9.72;74.60
69879;BME280;57161;43.136;24.706;2023-01-04T09:08:15;100413.38;;;9.71;74.79
69879;BME280;57161;43.136;24.706;2023-01-04T09:10:41;100410.84;;;9.79;74.11
69879;BME280;57161;43.136;24.706;2023-01-04T09:13:06;100399.16;;;9.75;74.23
69879;BME280;57161;43.136;24.706;2023-01-04T09:15:32;100413.13;;;9.86;74.09
69879;BME280;57161;43.136;24.706;2023-01-04T09:17:58;100412.88;;;9.95;73.93
69879;BME280;57161;43.136;24.706;2023-01-04T09:20:24;100399.66;;;10.01;73.80
69879;BME280;57161;43.136;24.706;2023-01-04T09:22:49;100406.72;;;10.08;73.49
69879;BME280;57161;43.136;24.706;2023-01-04T09:25:15;100401.91;;;10.14;73.20
69879;BME280;57161;43.136;24.706;2023-01-04T09:27:41;100387.66;;;10.17;73.00
69879;BME280;57161;43.136;24.706;2023-01-04T09:30:07;100402.91;;;10.28;72.57
69879;BME280;57161;43.136;24.706;2023-01-04T09:32:33;100390.47;;;10.29;72.39
69879;BME280;57161;43.136;24.706;2023-01-04T09:34:58;100344.59;;;9.90;72.65
69879;BME280;57161;43.136;24.706;2023-01-04T09:37:24;100390.47;;;10.17;72.57
69879;BME280;57161;43.136;24.706;2023-01-04T09:39:49;100407.97;;;10.18;72.49
69879;BME280;57161;43.136;24.706;2023-01-04T09:42:28;100392.00;;;10.13;72.81
69879;BME280;57161;43.136;24.706;2023-01-04T09:47:51;100392.69;;;10.41;72.00
69879;BME280;57161;43.136;24.706;2023-01-04T09:53:15;100374.59;;;10.59;70.95
69879;BME280;57161;43.136;24.706;2023-01-04T09:55:46;100355.31;;;10.50;70.65
69879;BME280;57161;43.136;24.706;2023-01-04T10:00:50;100379.13;;;10.62;70.83
69879;BME280;57161;43.136;24.706;2023-01-04T10:03:23;100395.53;;;10.82;70.73
69879;BME280;57161;43.136;24.706;2023-01-04T10:05:51;100390.19;;;10.85;70.34
69879;BME280;57161;43.136;24.706;2023-01-04T10:08:18;100385.94;;;10.72;70.53
69879;BME280;57161;43.136;24.706;2023-01-04T10:13:25;100387.38;;;10.85;70.75
69879;BME280;57161;43.136;24.706;2023-01-04T10:21:56;100376.44;;;10.92;69.96
69879;BME280;57161;43.136;24.706;2023-01-04T10:27:36;100376.19;;;10.85;69.36
69879;BME280;57161;43.136;24.706;2023-01-04T10:32:38;100384.69;;;10.68;70.52
69879;BME280;57161;43.136;24.706;2023-01-04T10:35:31;100386.47;;;10.65;70.60
69879;BME280;57161;43.136;24.706;2023-01-04T10:37:59;100380.38;;;10.67;70.73
69879;BME280;57161;43.136;24.706;2023-01-04T10:40:27;100375.03;;;10.69;70.75
69879;BME280;57161;43.136;24.706;2023-01-04T10:45:42;100374.59;;;10.53;71.31
69879;BME280;57161;43.136;24.706;2023-01-04T10:48:39;100372.31;;;10.52;71.52
69879;BME280;57161;43.136;24.706;2023-01-04T10:51:08;100357.16;;;10.36;71.56
69879;BME280;57161;43.136;24.706;2023-01-04T10:53:47;100371.34;;;10.44;71.56
69879;BME280;57161;43.136;24.706;2023-01-04T11:01:21;100364.25;;;10.43;71.84
69879;BME280;57161;43.136;24.706;2023-01-04T11:04:14;100374.16;;;10.38;71.98
69879;BME280;57161;43.136;24.706;2023-01-04T11:06:49;100369.34;;;10.33;72.14
69879;BME280;57161;43.136;24.706;2023-01-04T11:09:21;100355.91;;;10.20;72.24
69879;BME280;57161;43.136;24.706;2023-01-04T11:11:48;100377.53;;;10.26;72.63
69879;BME280;57161;43.136;24.706;2023-01-04T11:14:15;100356.19;;;10.17;72.53
69879;BME280;57161;43.136;24.706;2023-01-04T11:16:46;100371.94;;;10.26;72.62
69879;BME280;57161;43.136;24.706;2023-01-04T11:19:14;100369.91;;;10.15;72.74
69879;BME280;57161;43.136;24.706;2023-01-04T11:21:47;100372.97;;;10.11;73.29
69879;BME280;57161;43.136;24.706;2023-01-04T11:24:14;100360.28;;;10.05;73.12
69879;BME280;57161;43.136;24.706;2023-01-04T11:26:43;100368.63;;;10.16;73.29
69879;BME280;57161;43.136;24.706;2023-01-04T11:32:13;100375.97;;;10.25;73.17
69879;BME280;57161;43.136;24.706;2023-01-04T11:42:42;100354.72;;;9.99;73.52
69879;BME280;57161;43.136;24.706;2023-01-04T11:45:34;100356.47;;;10.13;73.38
69879;BME280;57161;43.136;24.706;2023-01-04T11:48:00;100331.59;;;10.04;73.21
69879;BME280;57161;43.136;24.706;2023-01-04T11:51:03;100358.69;;;10.20;73.28
69879;BME280;57161;43.136;24.706;2023-01-04T11:53:31;100365.06;;;10.21;73.15
69879;BME280;57161;43.136;24.706;2023-01-04T11:56:24;100368.13;;;10.29;73.28
69879;BME280;57161;43.136;24.706;2023-01-04T11:59:15;100373.69;;;10.23;73.50
69879;BME280;57161;43.136;24.706;2023-01-04T12:01:43;100367.66;;;10.02;74.09
69879;BME280;57161;43.136;24.706;2023-01-04T12:04:23;100358.03;;;9.98;74.44
69879;BME280;57161;43.136;24.706;2023-01-04T12:07:02;100326.41;;;9.56;75.16
69879;BME280;57161;43.136;24.706;2023-01-04T12:09:29;100349.47;;;9.68;75.33
69879;BME280;57161;43.136;24.706;2023-01-04T12:11:59;100359.09;;;9.67;76.13
69879;BME280;57161;43.136;24.706;2023-01-04T12:14:30;100365.69;;;9.75;75.92
69879;BME280;57161;43.136;24.706;2023-01-04T12:17:23;100367.97;;;9.82;75.97
69879;BME280;57161;43.136;24.706;2023-01-04T12:19:52;100365.44;;;9.78;75.96
69879;BME280;57161;43.136;24.706;2023-01-04T12:22:38;100373.00;;;9.89;75.68
69879;BME280;57161;43.136;24.706;2023-01-04T12:27:49;100358.81;;;9.87;75.38
69879;BME280;57161;43.136;24.706;2023-01-04T12:30:48;100355.22;;;9.92;75.28
69879;BME280;57161;43.136;24.706;2023-01-04T12:36:02;100376.06;;;9.97;75.31
69879;BME280;57161;43.136;24.706;2023-01-04T12:43:57;100382.91;;;9.96;75.12
69879;BME280;57161;43.136;24.706;2023-01-04T12:54:47;100392.81;;;9.91;75.65
69879;BME280;57161;43.136;24.706;2023-01-04T13:00:11;100376.78;;;10.03;75.03
69879;BME280;57161;43.136;24.706;2023-01-04T13:02:39;100398.09;;;10.06;74.92
69879;BME280;57161;43.136;24.706;2023-01-04T13:07:58;100401.13;;;10.13;74.79
69879;BME280;57161;43.136;24.706;2023-01-04T13:10:39;100387.19;;;10.13;74.89
69879;BME280;57161;43.136;24.706;2023-01-04T13:13:37;100396.81;;;10.12;74.64
69879;BME280;57161;43.136;24.706;2023-01-04T13:16:22;100372.00;;;9.98;74.39
69879;BME280;57161;43.136;24.706;2023-01-04T13:18:56;100389.00;;;9.94;75.20
69879;BME280;57161;43.136;24.706;2023-01-04T13:21:40;100393.06;;;9.87;75.78
69879;BME280;57161;43.136;24.706;2023-01-04T13:26:47;100381.16;;;9.76;75.80
69879;BME280;57161;43.136;24.706;2023-01-04T13:29:25;100391.03;;;9.88;76.08
69879;BME280;57161;43.136;24.706;2023-01-04T13:32:10;100397.91;;;9.76;76.30
69879;BME280;57161;43.136;24.706;2023-01-04T13:37:39;100392.84;;;9.57;77.19
69879;BME280;57161;43.136;24.706;2023-01-04T13:48:13;100401.72;;;9.39;78.57
69879;BME280;57161;43.136;24.706;2023-01-04T13:50:44;100401.22;;;9.24;79.33
69879;BME280;57161;43.136;24.706;2023-01-04T13:53:22;100397.94;;;9.31;79.36
69879;BME280;57161;43.136;24.706;2023-01-04T13:55:57;100401.75;;;9.28;79.34
69879;BME280;57161;43.136;24.706;2023-01-04T13:58:25;100414.19;;;9.44;79.12
69879;BME280;57161;43.136;24.706;2023-01-04T14:03:41;100410.34;;;9.41;79.29
69879;BME280;57161;43.136;24.706;2023-01-04T14:17:18;100414.63;;;8.97;81.99
69879;BME280;57161;43.136;24.706;2023-01-04T14:19:54;100426.75;;;8.94;82.23
69879;BME280;57161;43.136;24.706;2023-01-04T14:30:48;100418.47;;;8.40;85.76
69879;BME280;57161;43.136;24.706;2023-01-04T14:33:19;100421.78;;;8.45;85.99
69879;BME280;57161;43.136;24.706;2023-01-04T14:38:26;100396.84;;;8.19;86.80
69879;BME280;57161;43.136;24.706;2023-01-04T14:40:51;100420.25;;;8.38;86.59
69879;BME280;57161;43.136;24.706;2023-01-04T14:46:24;100422.66;;;8.67;85.55
69879;BME280;57161;43.136;24.706;2023-01-04T14:48:50;100405.88;;;8.56;85.61
69879;BME280;57161;43.136;24.706;2023-01-04T14:51:19;100419.63;;;8.77;85.01
69879;BME280;57161;43.136;24.706;2023-01-04T14:53:45;100426.19;;;8.73;85.04
69879;BME280;57161;43.136;24.706;2023-01-04T14:56:16;100429.28;;;8.81;84.69
69879;BME280;57161;43.136;24.706;2023-01-04T14:58:42;100415.84;;;8.80;84.19
69879;BME280;57161;43.136;24.706;2023-01-04T15:01:09;100431.81;;;8.90;83.70
69879;BME280;57161;43.136;24.706;2023-01-04T15:03:36;100432.31;;;8.83;83.78
69879;BME280;57161;43.136;24.706;2023-01-04T15:06:02;100436.56;;;8.67;84.55
69879;BME280;57161;43.136;24.706;2023-01-04T15:08:29;100425.09;;;8.49;84.90
69879;BME280;57161;43.136;24.706;2023-01-04T15:10:54;100421.25;;;8.35;85.48
69879;BME280;57161;43.136;24.706;2023-01-04T15:13:20;100427.78;;;8.32;85.59
69879;BME280;57161;43.136;24.706;2023-01-04T15:15:45;100427.47;;;8.24;85.95
69879;BME280;57161;43.136;24.706;2023-01-04T15:18:11;100450.81;;;8.32;85.76
69879;BME280;57161;43.136;24.706;2023-01-04T15:20:40;100454.06;;;8.25;85.86
69879;BME280;57161;43.136;24.706;2023-01-04T15:23:06;100443.84;;;8.11;86.33
69879;BME280;57161;43.136;24.706;2023-01-04T15:25:32;100436.22;;;8.00;86.30
69879;BME280;57161;43.136;24.706;2023-01-04T15:27:58;100429.38;;;8.01;86.40